sensor_id;sensor_type;location;lat;lon;timestamp;temperature;humidity
3408;DHT22;1717;50.240;8.406;2023-02-01T00:00:53;6.80;99.90
3408;DHT22;1717;50.240;8.406;2023-02-01T00:03:20;6.80;99.90
3408;DHT22;1717;50.240;8.406;2023-02-01T00:05:56;6.90;99.90
3408;DHT22;1717;50.240;8.406;2023-02-01T00:08:23;6.90;99.90
3408;DHT22;1717;50.240;8.406;2023-02-01T00:10:58;6.90;99.90
3408;DHT22;1717;50.240;8.406;2023-02-01T00:13:25;6.80;99.90
3408;DHT22;1717;50.240;8.406;2023-02-01T00:15:51;6.80;99.90
3408;DHT22;1717;50.240;8.406;2023-02-01T00:18:18;6.70;99.90
3408;DHT22;1717;50.240;8.406;2023-02-01T00:20:45;6.70;99.90
3408;DHT22;1717;50.240;8.406;2023-02-01T00:23:14;6.70;99.90
3408;DHT22;1717;50.240;8.406;2023-02-01T00:25:40;6.60;99.90
3408;DHT22;1717;50.240;8.406;2023-02-01T00:28:07;6.70;99.90
3408;DHT22;1717;50.240;8.406;2023-02-01T00:30:34;6.60;99.90
3408;DHT22;1717;50.240;8.406;2023-02-01T00:33:01;6.70;99.90
3408;DHT22;1717;50.240;8.406;2023-02-01T00:35:27;6.70;99.90
3408;DHT22;1717;50.240;8.406;2023-02-01T00:37:54;6.70;99.90
3408;DHT22;1717;50.240;8.406;2023-02-01T00:40:25;6.70;99.90
3408;DHT22;1717;50.240;8.406;2023-02-01T00:42:52;6.60;99.90
3408;DHT22;1717;50.240;8.406;2023-02-01T00:45:19;6.60;99.90
3408;DHT22;1717;50.240;8.406;2023-02-01T00:47:46;6.60;99.90
3408;DHT22;1717;50.240;8.406;2023-02-01T00:50:13;6.60;99.90
3408;DHT22;1717;50.240;8.406;2023-02-01T00:52:40;6.60;99.90
3408;DHT22;1717;50.240;8.406;2023-02-01T00:55:07;6.60;99.90
3408;DHT22;1717;50.240;8.406;2023-02-01T00:57:35;6.60;99.90
3408;DHT22;1717;50.240;8.406;2023-02-01T01:00:03;6.60;99.90
3408;DHT22;1717;50.240;8.406;2023-02-01T01:02:30;6.60;99.90
3408;DHT22;1717;50.240;8.406;2023-02-01T01:04:57;6.60;99.90
3408;DHT22;1717;50.240;8.406;2023-02-01T01:07:23;6.60;99.90
3408;DHT22;1717;50.240;8.406;2023-02-01T01:09:50;6.70;99.90
3408;DHT22;1717;50.240;8.406;2023-02-01T01:12:17;6.70;99.90
3408;DHT22;1717;50.240;8.406;2023-02-01T01:14:46;6.70;99.90
3408;DHT22;1717;50.240;8.406;2023-02-01T01:17:13;6.70;99.90
3408;DHT22;1717;50.240;8.406;2023-02-01T01:19:40;6.70;99.90
3408;DHT22;1717;50.240;8.406;2023-02-01T01:22:06;6.80;99.90
3408;DHT22;1717;50.240;8.406;2023-02-01T01:24:33;6.80;99.90
3408;DHT22;1717;50.240;8.406;2023-02-01T01:27:00;6.90;99.90
3408;DHT22;1717;50.240;8.406;2023-02-01T01:29:27;6.90;99.90
3408;DHT22;1717;50.240;8.406;2023-02-01T01:31:55;6.90;99.90
3408;DHT22;1717;50.240;8.406;2023-02-01T01:34:22;6.90;99.90
3408;DHT22;1717;50.240;8.406;2023-02-01T01:36:49;6.90;99.90
3408;DHT22;1717;50.240;8.406;2023-02-01T01:39:15;6.90;99.90
3408;DHT22;1717;50.240;8.406;2023-02-01T01:41:42;6.90;99.90
3408;DHT22;1717;50.240;8.406;2023-02-01T01:47:10;6.90;99.90
3408;DHT22;1717;50.240;8.406;2023-02-01T01:49:38;6.80;99.90
3408;DHT22;1717;50.240;8.406;2023-02-01T01:52:05;6.80;99.90
3408;DHT22;1717;50.240;8.406;2023-02-01T01:54:35;6.70;99.90
3408;DHT22;1717;50.240;8.406;2023-02-01T01:57:06;6.70;99.90
3408;DHT22;1717;50.240;8.406;2023-02-01T01:59:36;6.60;99.90
3408;DHT22;1717;50.240;8.406;2023-02-01T02:02:05;6.60;99.90
3408;DHT22;1717;50.240;8.406;2023-02-01T02:04:34;6.60;99.90
3408;DHT22;1717;50.240;8.406;2023-02-01T02:07:04;6.50;99.90
3408;DHT22;1717;50.240;8.406;2023-02-01T02:09:31;6.60;99.90
3408;DHT22;1717;50.240;8.406;2023-02-01T02:11:58;6.50;99.90
3408;DHT22;1717;50.240;8.406;2023-02-01T02:14:26;6.50;99.90
3408;DHT22;1717;50.240;8.406;2023-02-01T02:16:58;6.50;99.90
3408;DHT22;1717;50.240;8.406;2023-02-01T02:19:51;6.50;99.90
3408;DHT22;1717;50.240;8.406;2023-02-01T02:22:40;6.50;99.90
3408;DHT22;1717;50.240;8.406;2023-02-01T02:25:38;6.50;99.90
3408;DHT22;1717;50.240;8.406;2023-02-01T02:28:19;6.40;99.90
3408;DHT22;1717;50.240;8.406;2023-02-01T02:33:59;6.40;99.90
3408;DHT22;1717;50.240;8.406;2023-02-01T02:36:35;6.40;99.90
3408;DHT22;1717;50.240;8.406;2023-02-01T02:39:08;6.40;99.90
3408;DHT22;1717;50.240;8.406;2023-02-01T02:41:48;6.40;99.90
3408;DHT22;1717;50.240;8.406;2023-02-01T02:44:39;6.50;99.90
3408;DHT22;1717;50.240;8.406;2023-02-01T02:47:33;6.50;99.90
3408;DHT22;1717;50.240;8.406;2023-02-01T02:50:10;6.50;99.90
3408;DHT22;1717;50.240;8.406;2023-02-01T02:53:00;6.50;99.90
3408;DHT22;1717;50.240;8.406;2023-02-01T02:55:47;6.50;99.90
3408;DHT22;1717;50.240;8.406;2023-02-01T02:58:16;6.50;99.90
3408;DHT22;1717;50.240;8.406;2023-02-01T03:01:01;6.50;99.90
3408;DHT22;1717;50.240;8.406;2023-02-01T03:03:48;6.40;99.90
3408;DHT22;1717;50.240;8.406;2023-02-01T03:06:36;6.40;99.90
3408;DHT22;1717;50.240;8.406;2023-02-01T03:09:10;6.40;99.90
3408;DHT22;1717;50.240;8.406;2023-02-01T03:11:39;6.40;99.90
3408;DHT22;1717;50.240;8.406;2023-02-01T03:14:25;6.40;99.90
3408;DHT22;1717;50.240;8.406;2023-02-01T03:16:58;6.40;99.90
3408;DHT22;1717;50.240;8.406;2023-02-01T03:19:31;6.40;99.90
3408;DHT22;1717;50.240;8.406;2023-02-01T03:22:02;6.40;99.90
3408;DHT22;1717;50.240;8.406;2023-02-01T03:24:32;6.40;99.90
3408;DHT22;1717;50.240;8.406;2023-02-01T03:27:05;6.40;99.90
3408;DHT22;1717;50.240;8.406;2023-02-01T03:29:38;6.30;99.90
3408;DHT22;1717;50.240;8.406;2023-02-01T03:32:06;6.40;99.90
3408;DHT22;1717;50.240;8.406;2023-02-01T03:34:35;6.40;99.90
3408;DHT22;1717;50.240;8.406;2023-02-01T03:37:05;6.40;99.90
3408;DHT22;1717;50.240;8.406;2023-02-01T03:39:36;6.40;99.90
3408;DHT22;1717;50.240;8.406;2023-02-01T03:42:06;6.40;99.90
3408;DHT22;1717;50.240;8.406;2023-02-01T03:44:40;6.40;99.90
3408;DHT22;1717;50.240;8.406;2023-02-01T03:47:11;6.50;99.90
3408;DHT22;1717;50.240;8.406;2023-02-01T03:49:42;6.40;99.90
3408;DHT22;1717;50.240;8.406;2023-02-01T03:52:14;6.30;99.90
3408;DHT22;1717;50.240;8.406;2023-02-01T03:54:42;6.30;99.90
3408;DHT22;1717;50.240;8.406;2023-02-01T03:57:12;6.30;99.90
3408;DHT22;1717;50.240;8.406;2023-02-01T03:59:39;6.30;99.90
3408;DHT22;1717;50.240;8.406;2023-02-01T04:02:07;6.30;99.90
3408;DHT22;1717;50.240;8.406;2023-02-01T04:04:34;6.30;99.90
3408;DHT22;1717;50.240;8.406;2023-02-01T04:07:01;6.30;99.90
3408;DHT22;1717;50.240;8.406;2023-02-01T04:09:29;6.30;99.90
3408;DHT22;1717;50.240;8.406;2023-02-01T04:11:56;6.30;99.90
3408;DHT22;1717;50.240;8.406;2023-02-01T04:14:23;6.30;99.90
3408;DHT22;1717;50.240;8.406;2023-02-01T04:16:50;6.30;99.90
3408;DHT22;1717;50.240;8.406;2023-02-01T04:19:16;6.30;99.90
3408;DHT22;1717;50.240;8.406;2023-02-01T04:21:43;6.30;99.90
3408;DHT22;1717;50.240;8.406;2023-02-01T04:24:10;6.30;99.90
3408;DHT22;1717;50.240;8.406;2023-02-01T04:26:38;6.30;99.90
3408;DHT22;1717;50.240;8.406;2023-02-01T04:29:05;6.30;99.90
3408;DHT22;1717;50.240;8.406;2023-02-01T04:31:32;6.30;99.90
3408;DHT22;1717;50.240;8.406;2023-02-01T04:34:01;6.30;99.90
3408;DHT22;1717;50.240;8.406;2023-02-01T04:36:28;6.40;99.90
3408;DHT22;1717;50.240;8.406;2023-02-01T04:38:55;6.40;99.90
3408;DHT22;1717;50.240;8.406;2023-02-01T04:41:21;6.40;99.90
3408;DHT22;1717;50.240;8.406;2023-02-01T04:43:50;6.60;99.90
3408;DHT22;1717;50.240;8.406;2023-02-01T04:46:18;6.60;99.90
3408;DHT22;1717;50.240;8.406;2023-02-01T04:48:45;6.60;99.90
3408;DHT22;1717;50.240;8.406;2023-02-01T04:51:12;6.70;99.90
3408;DHT22;1717;50.240;8.406;2023-02-01T04:53:39;6.60;99.90
3408;DHT22;1717;50.240;8.406;2023-02-01T04:56:06;6.40;99.90
3408;DHT22;1717;50.240;8.406;2023-02-01T04:58:33;6.40;99.90
3408;DHT22;1717;50.240;8.406;2023-02-01T05:01:03;6.40;99.90
3408;DHT22;1717;50.240;8.406;2023-02-01T05:03:30;6.50;99.90
3408;DHT22;1717;50.240;8.406;2023-02-01T05:05:57;6.40;99.90
3408;DHT22;1717;50.240;8.406;2023-02-01T05:08:24;6.40;99.90
3408;DHT22;1717;50.240;8.406;2023-02-01T05:10:52;6.40;99.90
3408;DHT22;1717;50.240;8.406;2023-02-01T05:13:19;6.40;99.90
3408;DHT22;1717;50.240;8.406;2023-02-01T05:16:05;6.30;99.90
3408;DHT22;1717;50.240;8.406;2023-02-01T05:18:32;6.30;99.90
3408;DHT22;1717;50.240;8.406;2023-02-01T05:20:59;6.40;99.90
3408;DHT22;1717;50.240;8.406;2023-02-01T05:23:26;6.30;99.90
3408;DHT22;1717;50.240;8.406;2023-02-01T05:25:58;6.30;99.90
3408;DHT22;1717;50.240;8.406;2023-02-01T05:28:25;6.30;99.90
3408;DHT22;1717;50.240;8.406;2023-02-01T05:30:51;6.30;99.90
3408;DHT22;1717;50.240;8.406;2023-02-01T05:33:20;6.40;99.90
3408;DHT22;1717;50.240;8.406;2023-02-01T05:35:46;6.50;99.90
3408;DHT22;1717;50.240;8.406;2023-02-01T05:38:13;6.30;99.90
3408;DHT22;1717;50.240;8.406;2023-02-01T05:40:40;6.30;99.90
3408;DHT22;1717;50.240;8.406;2023-02-01T05:43:07;6.30;99.90
3408;DHT22;1717;50.240;8.406;2023-02-01T05:45:34;6.20;99.90
3408;DHT22;1717;50.240;8.406;2023-02-01T05:48:01;6.20;99.90
3408;DHT22;1717;50.240;8.406;2023-02-01T05:50:29;6.20;99.90
3408;DHT22;1717;50.240;8.406;2023-02-01T05:52:55;6.20;99.90
3408;DHT22;1717;50.240;8.406;2023-02-01T05:55:22;6.20;99.90
3408;DHT22;1717;50.240;8.406;2023-02-01T05:57:49;6.20;99.90
3408;DHT22;1717;50.240;8.406;2023-02-01T06:00:16;6.10;99.90
3408;DHT22;1717;50.240;8.406;2023-02-01T06:02:43;6.10;99.90
3408;DHT22;1717;50.240;8.406;2023-02-01T06:05:10;6.10;99.90
3408;DHT22;1717;50.240;8.406;2023-02-01T06:07:39;6.10;99.90
3408;DHT22;1717;50.240;8.406;2023-02-01T06:10:06;6.00;99.90
3408;DHT22;1717;50.240;8.406;2023-02-01T06:12:33;6.00;99.90
3408;DHT22;1717;50.240;8.406;2023-02-01T06:14:59;6.00;99.90
3408;DHT22;1717;50.240;8.406;2023-02-01T06:17:26;5.90;99.90
3408;DHT22;1717;50.240;8.406;2023-02-01T06:19:53;5.90;99.90
3408;DHT22;1717;50.240;8.406;2023-02-01T06:22:20;5.90;99.90
3408;DHT22;1717;50.240;8.406;2023-02-01T06:24:48;5.90;99.90
3408;DHT22;1717;50.240;8.406;2023-02-01T06:27:15;5.80;99.90
3408;DHT22;1717;50.240;8.406;2023-02-01T06:29:42;5.80;99.90
3408;DHT22;1717;50.240;8.406;2023-02-01T06:32:08;5.80;99.90
3408;DHT22;1717;50.240;8.406;2023-02-01T06:34:35;5.70;99.90
3408;DHT22;1717;50.240;8.406;2023-02-01T06:37:02;5.70;99.90
3408;DHT22;1717;50.240;8.406;2023-02-01T06:39:29;5.70;99.90
3408;DHT22;1717;50.240;8.406;2023-02-01T06:41:57;5.70;99.90
3408;DHT22;1717;50.240;8.406;2023-02-01T06:44:24;5.60;99.90
3408;DHT22;1717;50.240;8.406;2023-02-01T06:46:51;5.60;99.90
3408;DHT22;1717;50.240;8.406;2023-02-01T06:49:18;5.60;99.90
3408;DHT22;1717;50.240;8.406;2023-02-01T06:51:45;5.60;99.90
3408;DHT22;1717;50.240;8.406;2023-02-01T06:54:12;5.50;99.90
3408;DHT22;1717;50.240;8.406;2023-02-01T06:56:38;5.70;99.90
3408;DHT22;1717;50.240;8.406;2023-02-01T06:59:07;5.40;99.90
3408;DHT22;1717;50.240;8.406;2023-02-01T07:01:34;5.50;99.90
3408;DHT22;1717;50.240;8.406;2023-02-01T07:04:01;5.40;99.90
3408;DHT22;1717;50.240;8.406;2023-02-01T07:06:28;5.60;99.90
3408;DHT22;1717;50.240;8.406;2023-02-01T07:08:55;5.40;99.90
3408;DHT22;1717;50.240;8.406;2023-02-01T07:11:22;5.40;99.90
3408;DHT22;1717;50.240;8.406;2023-02-01T07:13:49;5.40;99.90
3408;DHT22;1717;50.240;8.406;2023-02-01T07:16:19;5.30;99.90
3408;DHT22;1717;50.240;8.406;2023-02-01T07:18:46;5.30;99.90
3408;DHT22;1717;50.240;8.406;2023-02-01T07:21:13;5.30;99.90
3408;DHT22;1717;50.240;8.406;2023-02-01T07:23:39;5.30;99.90
3408;DHT22;1717;50.240;8.406;2023-02-01T07:26:08;5.30;99.90
3408;DHT22;1717;50.240;8.406;2023-02-01T07:28:36;5.30;99.90
3408;DHT22;1717;50.240;8.406;2023-02-01T07:31:04;5.30;99.90
3408;DHT22;1717;50.240;8.406;2023-02-01T07:33:32;5.20;99.90
3408;DHT22;1717;50.240;8.406;2023-02-01T07:36:00;5.30;99.90
3408;DHT22;1717;50.240;8.406;2023-02-01T07:38:28;5.20;99.90
3408;DHT22;1717;50.240;8.406;2023-02-01T07:40:57;5.10;99.90
3408;DHT22;1717;50.240;8.406;2023-02-01T07:43:25;5.10;99.90
3408;DHT22;1717;50.240;8.406;2023-02-01T07:45:52;5.20;99.90
3408;DHT22;1717;50.240;8.406;2023-02-01T07:48:19;5.20;99.90
3408;DHT22;1717;50.240;8.406;2023-02-01T07:50:47;5.20;99.90
3408;DHT22;1717;50.240;8.406;2023-02-01T07:53:14;5.10;99.90
3408;DHT22;1717;50.240;8.406;2023-02-01T07:55:41;5.20;99.90
3408;DHT22;1717;50.240;8.406;2023-02-01T07:58:08;5.20;99.90
3408;DHT22;1717;50.240;8.406;2023-02-01T08:00:34;5.00;99.90
3408;DHT22;1717;50.240;8.406;2023-02-01T08:03:18;5.30;99.90
3408;DHT22;1717;50.240;8.406;2023-02-01T08:05:47;5.30;99.90
3408;DHT22;1717;50.240;8.406;2023-02-01T08:08:14;5.30;99.90
3408;DHT22;1717;50.240;8.406;2023-02-01T08:10:41;5.30;99.90
3408;DHT22;1717;50.240;8.406;2023-02-01T08:13:07;5.30;99.90
3408;DHT22;1717;50.240;8.406;2023-02-01T08:15:35;5.30;99.90
3408;DHT22;1717;50.240;8.406;2023-02-01T08:18:02;5.30;99.90
3408;DHT22;1717;50.240;8.406;2023-02-01T08:20:30;5.40;99.90
3408;DHT22;1717;50.240;8.406;2023-02-01T08:22:58;5.30;99.90
3408;DHT22;1717;50.240;8.406;2023-02-01T08:25:25;5.30;99.90
3408;DHT22;1717;50.240;8.406;2023-02-01T08:27:53;5.30;99.90
3408;DHT22;1717;50.240;8.406;2023-02-01T08:30:21;5.40;99.90
3408;DHT22;1717;50.240;8.406;2023-02-01T08:32:48;5.40;99.90
3408;DHT22;1717;50.240;8.406;2023-02-01T08:35:15;5.40;99.90
3408;DHT22;1717;50.240;8.406;2023-02-01T08:37:42;5.40;99.90
3408;DHT22;1717;50.240;8.406;2023-02-01T08:40:11;5.50;99.90
3408;DHT22;1717;50.240;8.406;2023-02-01T08:42:39;5.40;99.90
3408;DHT22;1717;50.240;8.406;2023-02-01T08:45:18;5.50;99.90
3408;DHT22;1717;50.240;8.406;2023-02-01T08:47:45;5.50;99.90
3408;DHT22;1717;50.240;8.406;2023-02-01T08:50:14;5.50;99.90
3408;DHT22;1717;50.240;8.406;2023-02-01T08:52:42;5.50;99.90
3408;DHT22;1717;50.240;8.406;2023-02-01T08:55:11;5.50;99.90
3408;DHT22;1717;50.240;8.406;2023-02-01T08:57:38;5.60;99.90
3408;DHT22;1717;50.240;8.406;2023-02-01T09:00:07;5.70;99.90
3408;DHT22;1717;50.240;8.406;2023-02-01T09:02:35;5.60;99.90
3408;DHT22;1717;50.240;8.406;2023-02-01T09:05:03;5.70;99.90
3408;DHT22;1717;50.240;8.406;2023-02-01T09:07:30;5.70;99.90
3408;DHT22;1717;50.240;8.406;2023-02-01T09:09:57;5.60;99.90
3408;DHT22;1717;50.240;8.406;2023-02-01T09:12:28;5.70;99.90
3408;DHT22;1717;50.240;8.406;2023-02-01T09:14:55;5.70;99.90
3408;DHT22;1717;50.240;8.406;2023-02-01T09:17:24;5.60;99.90
3408;DHT22;1717;50.240;8.406;2023-02-01T09:19:51;5.70;99.90
3408;DHT22;1717;50.240;8.406;2023-02-01T09:22:18;5.70;99.90
3408;DHT22;1717;50.240;8.406;2023-02-01T09:24:45;5.70;99.90
3408;DHT22;1717;50.240;8.406;2023-02-01T09:27:12;5.70;99.90
3408;DHT22;1717;50.240;8.406;2023-02-01T09:29:40;5.80;99.90
3408;DHT22;1717;50.240;8.406;2023-02-01T09:32:07;5.80;99.90
3408;DHT22;1717;50.240;8.406;2023-02-01T09:34:34;5.80;99.90
3408;DHT22;1717;50.240;8.406;2023-02-01T09:37:01;5.80;99.90
3408;DHT22;1717;50.240;8.406;2023-02-01T09:39:28;5.80;99.90
3408;DHT22;1717;50.240;8.406;2023-02-01T09:42:02;5.90;99.90
3408;DHT22;1717;50.240;8.406;2023-02-01T09:44:56;5.90;99.90
3408;DHT22;1717;50.240;8.406;2023-02-01T09:47:26;6.00;99.90
3408;DHT22;1717;50.240;8.406;2023-02-01T09:49:56;5.90;99.90
3408;DHT22;1717;50.240;8.406;2023-02-01T09:52:32;5.90;99.90
3408;DHT22;1717;50.240;8.406;2023-02-01T09:55:05;6.00;99.90
3408;DHT22;1717;50.240;8.406;2023-02-01T09:57:41;6.00;99.90
3408;DHT22;1717;50.240;8.406;2023-02-01T10:00:17;6.00;99.90
3408;DHT22;1717;50.240;8.406;2023-02-01T10:02:47;6.10;99.90
3408;DHT22;1717;50.240;8.406;2023-02-01T10:05:16;6.20;99.90
3408;DHT22;1717;50.240;8.406;2023-02-01T10:07:50;6.20;99.90
3408;DHT22;1717;50.240;8.406;2023-02-01T10:10:28;6.20;99.90
3408;DHT22;1717;50.240;8.406;2023-02-01T10:13:22;6.30;99.90
3408;DHT22;1717;50.240;8.406;2023-02-01T10:16:02;6.40;99.90
3408;DHT22;1717;50.240;8.406;2023-02-01T10:21:40;6.40;99.90
3408;DHT22;1717;50.240;8.406;2023-02-01T10:27:02;6.50;99.90
3408;DHT22;1717;50.240;8.406;2023-02-01T10:29:34;6.60;99.90
3408;DHT22;1717;50.240;8.406;2023-02-01T10:32:12;6.60;99.90
3408;DHT22;1717;50.240;8.406;2023-02-01T10:34:41;6.60;99.90
3408;DHT22;1717;50.240;8.406;2023-02-01T10:37:20;6.70;99.90
3408;DHT22;1717;50.240;8.406;2023-02-01T10:39:52;6.70;99.90
3408;DHT22;1717;50.240;8.406;2023-02-01T10:42:21;6.70;99.90
3408;DHT22;1717;50.240;8.406;2023-02-01T10:44:50;6.70;99.90
3408;DHT22;1717;50.240;8.406;2023-02-01T10:47:19;6.70;99.90
3408;DHT22;1717;50.240;8.406;2023-02-01T10:49:52;6.70;99.90
3408;DHT22;1717;50.240;8.406;2023-02-01T10:52:30;6.80;99.90
3408;DHT22;1717;50.240;8.406;2023-02-01T10:55:34;6.80;99.90
3408;DHT22;1717;50.240;8.406;2023-02-01T10:58:03;6.80;99.90
3408;DHT22;1717;50.240;8.406;2023-02-01T11:00:41;6.90;99.90
3408;DHT22;1717;50.240;8.406;2023-02-01T11:03:33;6.80;99.90
3408;DHT22;1717;50.240;8.406;2023-02-01T11:06:03;6.80;99.90
3408;DHT22;1717;50.240;8.406;2023-02-01T11:08:42;6.80;99.90
3408;DHT22;1717;50.240;8.406;2023-02-01T11:11:10;6.80;99.90
3408;DHT22;1717;50.240;8.406;2023-02-01T11:13:39;6.80;99.90
3408;DHT22;1717;50.240;8.406;2023-02-01T11:16:08;6.80;99.90
3408;DHT22;1717;50.240;8.406;2023-02-01T11:18:39;6.80;99.90
3408;DHT22;1717;50.240;8.406;2023-02-01T11:21:07;6.80;99.90
3408;DHT22;1717;50.240;8.406;2023-02-01T11:23:40;6.80;99.90
3408;DHT22;1717;50.240;8.406;2023-02-01T11:26:12;6.80;99.90
3408;DHT22;1717;50.240;8.406;2023-02-01T11:28:43;6.80;99.90
3408;DHT22;1717;50.240;8.406;2023-02-01T11:31:13;6.80;99.90
3408;DHT22;1717;50.240;8.406;2023-02-01T11:33:47;6.90;99.90
3408;DHT22;1717;50.240;8.406;2023-02-01T11:36:17;6.90;99.90
3408;DHT22;1717;50.240;8.406;2023-02-01T11:38:51;6.80;99.90
3408;DHT22;1717;50.240;8.406;2023-02-01T11:41:22;6.90;99.90
3408;DHT22;1717;50.240;8.406;2023-02-01T11:43:57;6.90;99.90
3408;DHT22;1717;50.240;8.406;2023-02-01T11:46:29;6.90;99.90
3408;DHT22;1717;50.240;8.406;2023-02-01T11:49:14;6.90;99.90
3408;DHT22;1717;50.240;8.406;2023-02-01T11:51:53;6.90;99.90
3408;DHT22;1717;50.240;8.406;2023-02-01T11:54:35;6.90;99.90
3408;DHT22;1717;50.240;8.406;2023-02-01T11:57:12;6.90;99.90
3408;DHT22;1717;50.240;8.406;2023-02-01T11:59:57;6.90;99.90
3408;DHT22;1717;50.240;8.406;2023-02-01T12:02:55;6.90;99.90
3408;DHT22;1717;50.240;8.406;2023-02-01T12:05:34;6.90;99.90
3408;DHT22;1717;50.240;8.406;2023-02-01T12:08:26;7.00;99.90
3408;DHT22;1717;50.240;8.406;2023-02-01T12:11:08;6.90;99.90
3408;DHT22;1717;50.240;8.406;2023-02-01T12:13:47;6.90;99.90
3408;DHT22;1717;50.240;8.406;2023-02-01T12:16:25;7.00;99.90
3408;DHT22;1717;50.240;8.406;2023-02-01T12:19:10;6.90;99.90
3408;DHT22;1717;50.240;8.406;2023-02-01T12:21:52;6.90;99.90
3408;DHT22;1717;50.240;8.406;2023-02-01T12:24:48;6.90;99.90
3408;DHT22;1717;50.240;8.406;2023-02-01T12:27:41;6.90;99.90
3408;DHT22;1717;50.240;8.406;2023-02-01T12:30:31;6.90;99.90
3408;DHT22;1717;50.240;8.406;2023-02-01T12:33:11;6.90;99.90
3408;DHT22;1717;50.240;8.406;2023-02-01T12:35:50;6.90;99.90
3408;DHT22;1717;50.240;8.406;2023-02-01T12:38:52;6.90;99.90
3408;DHT22;1717;50.240;8.406;2023-02-01T12:41:43;6.90;99.90
3408;DHT22;1717;50.240;8.406;2023-02-01T12:44:20;6.90;99.90
3408;DHT22;1717;50.240;8.406;2023-02-01T12:46:53;7.00;99.90
3408;DHT22;1717;50.240;8.406;2023-02-01T12:49:27;6.90;99.90
3408;DHT22;1717;50.240;8.406;2023-02-01T12:52:04;6.90;99.90
3408;DHT22;1717;50.240;8.406;2023-02-01T12:54:39;6.90;99.90
3408;DHT22;1717;50.240;8.406;2023-02-01T12:57:11;7.00;99.90
3408;DHT22;1717;50.240;8.406;2023-02-01T12:59:43;6.90;99.90
3408;DHT22;1717;50.240;8.406;2023-02-01T13:02:15;6.90;99.90
3408;DHT22;1717;50.240;8.406;2023-02-01T13:04:52;6.90;99.90
3408;DHT22;1717;50.240;8.406;2023-02-01T13:07:23;6.90;99.90
3408;DHT22;1717;50.240;8.406;2023-02-01T13:09:57;6.90;99.90
3408;DHT22;1717;50.240;8.406;2023-02-01T13:12:32;6.90;99.90
3408;DHT22;1717;50.240;8.406;2023-02-01T13:15:03;6.90;99.90
3408;DHT22;1717;50.240;8.406;2023-02-01T13:17:33;6.90;99.90
3408;DHT22;1717;50.240;8.406;2023-02-01T13:20:06;6.90;99.90
3408;DHT22;1717;50.240;8.406;2023-02-01T13:22:39;6.90;99.90
3408;DHT22;1717;50.240;8.406;2023-02-01T13:25:13;6.90;99.90
3408;DHT22;1717;50.240;8.406;2023-02-01T13:27:43;6.90;99.90
3408;DHT22;1717;50.240;8.406;2023-02-01T13:30:16;6.90;99.90
3408;DHT22;1717;50.240;8.406;2023-02-01T13:33:07;6.90;99.90
3408;DHT22;1717;50.240;8.406;2023-02-01T13:36:06;6.90;99.90
3408;DHT22;1717;50.240;8.406;2023-02-01T13:39:03;6.90;99.90
3408;DHT22;1717;50.240;8.406;2023-02-01T13:41:39;6.90;99.90
3408;DHT22;1717;50.240;8.406;2023-02-01T13:44:12;6.90;99.90
3408;DHT22;1717;50.240;8.406;2023-02-01T13:46:42;6.80;99.90
3408;DHT22;1717;50.240;8.406;2023-02-01T13:49:19;6.80;99.90
3408;DHT22;1717;50.240;8.406;2023-02-01T13:51:49;6.80;99.90
3408;DHT22;1717;50.240;8.406;2023-02-01T13:54:30;6.80;99.90
3408;DHT22;1717;50.240;8.406;2023-02-01T13:57:01;6.80;99.90
3408;DHT22;1717;50.240;8.406;2023-02-01T13:59:51;6.80;99.90
3408;DHT22;1717;50.240;8.406;2023-02-01T14:02:48;6.80;99.90
3408;DHT22;1717;50.240;8.406;2023-02-01T14:08:23;6.90;99.90
3408;DHT22;1717;50.240;8.406;2023-02-01T14:10:53;6.90;99.90
3408;DHT22;1717;50.240;8.406;2023-02-01T14:13:28;6.90;99.90
3408;DHT22;1717;50.240;8.406;2023-02-01T14:16:12;6.90;99.90
3408;DHT22;1717;50.240;8.406;2023-02-01T14:18:59;7.00;99.90
3408;DHT22;1717;50.240;8.406;2023-02-01T14:21:28;7.00;99.90
3408;DHT22;1717;50.240;8.406;2023-02-01T14:23:58;7.10;99.90
3408;DHT22;1717;50.240;8.406;2023-02-01T14:26:40;7.10;99.90
3408;DHT22;1717;50.240;8.406;2023-02-01T14:29:25;7.10;99.90
3408;DHT22;1717;50.240;8.406;2023-02-01T14:31:59;7.10;99.90
3408;DHT22;1717;50.240;8.406;2023-02-01T14:34:35;7.10;99.90
3408;DHT22;1717;50.240;8.406;2023-02-01T14:37:10;7.20;99.90
3408;DHT22;1717;50.240;8.406;2023-02-01T14:39:50;7.20;99.90
3408;DHT22;1717;50.240;8.406;2023-02-01T14:42:25;7.20;99.90
3408;DHT22;1717;50.240;8.406;2023-02-01T14:44:55;7.30;99.90
3408;DHT22;1717;50.240;8.406;2023-02-01T14:47:29;7.30;99.90
3408;DHT22;1717;50.240;8.406;2023-02-01T14:50:27;7.30;99.90
3408;DHT22;1717;50.240;8.406;2023-02-01T14:53:20;7.30;99.90
3408;DHT22;1717;50.240;8.406;2023-02-01T14:55:51;7.30;99.90
3408;DHT22;1717;50.240;8.406;2023-02-01T14:58:28;7.30;99.90
3408;DHT22;1717;50.240;8.406;2023-02-01T15:01:02;7.30;99.90
3408;DHT22;1717;50.240;8.406;2023-02-01T15:03:50;7.30;99.90
3408;DHT22;1717;50.240;8.406;2023-02-01T15:06:30;7.30;99.90
3408;DHT22;1717;50.240;8.406;2023-02-01T15:09:01;7.30;99.90
3408;DHT22;1717;50.240;8.406;2023-02-01T15:11:29;7.30;99.90
3408;DHT22;1717;50.240;8.406;2023-02-01T15:13:56;7.30;99.90
3408;DHT22;1717;50.240;8.406;2023-02-01T15:16:27;7.20;99.90
3408;DHT22;1717;50.240;8.406;2023-02-01T15:19:11;7.20;99.90
3408;DHT22;1717;50.240;8.406;2023-02-01T15:21:46;7.10;99.90
3408;DHT22;1717;50.240;8.406;2023-02-01T15:24:14;7.10;99.90
3408;DHT22;1717;50.240;8.406;2023-02-01T15:26:41;7.10;99.90
3408;DHT22;1717;50.240;8.406;2023-02-01T15:29:12;7.00;99.90
3408;DHT22;1717;50.240;8.406;2023-02-01T15:31:43;7.00;99.90
3408;DHT22;1717;50.240;8.406;2023-02-01T15:34:11;7.00;99.90
3408;DHT22;1717;50.240;8.406;2023-02-01T15:36:38;6.90;99.90
3408;DHT22;1717;50.240;8.406;2023-02-01T15:39:14;6.90;99.90
3408;DHT22;1717;50.240;8.406;2023-02-01T15:41:46;6.80;99.90
3408;DHT22;1717;50.240;8.406;2023-02-01T15:44:18;6.80;99.90
3408;DHT22;1717;50.240;8.406;2023-02-01T15:46:49;6.70;99.90
3408;DHT22;1717;50.240;8.406;2023-02-01T15:49:20;6.70;99.90
3408;DHT22;1717;50.240;8.406;2023-02-01T15:51:50;6.70;99.90
3408;DHT22;1717;50.240;8.406;2023-02-01T15:54:20;6.70;99.90
3408;DHT22;1717;50.240;8.406;2023-02-01T15:56:51;6.70;99.90
3408;DHT22;1717;50.240;8.406;2023-02-01T15:59:21;6.60;99.90
3408;DHT22;1717;50.240;8.406;2023-02-01T16:01:51;6.60;99.90
3408;DHT22;1717;50.240;8.406;2023-02-01T16:04:19;6.60;99.90
3408;DHT22;1717;50.240;8.406;2023-02-01T16:06:49;6.60;99.90
3408;DHT22;1717;50.240;8.406;2023-02-01T16:09:18;6.50;99.90
3408;DHT22;1717;50.240;8.406;2023-02-01T16:11:53;6.50;99.90
3408;DHT22;1717;50.240;8.406;2023-02-01T16:14:21;6.50;99.90
3408;DHT22;1717;50.240;8.406;2023-02-01T16:16:50;6.50;99.90
3408;DHT22;1717;50.240;8.406;2023-02-01T16:19:17;6.50;99.90
3408;DHT22;1717;50.240;8.406;2023-02-01T16:21:45;6.50;99.90
3408;DHT22;1717;50.240;8.406;2023-02-01T16:24:12;6.50;99.90
3408;DHT22;1717;50.240;8.406;2023-02-01T16:26:39;6.50;99.90
3408;DHT22;1717;50.240;8.406;2023-02-01T16:29:06;6.50;99.90
3408;DHT22;1717;50.240;8.406;2023-02-01T16:31:36;6.50;99.90
3408;DHT22;1717;50.240;8.406;2023-02-01T16:34:05;6.50;99.90
3408;DHT22;1717;50.240;8.406;2023-02-01T16:36:33;6.50;99.90
3408;DHT22;1717;50.240;8.406;2023-02-01T16:39:00;6.50;99.90
3408;DHT22;1717;50.240;8.406;2023-02-01T16:41:28;6.50;99.90
3408;DHT22;1717;50.240;8.406;2023-02-01T16:43:55;6.60;99.90
3408;DHT22;1717;50.240;8.406;2023-02-01T16:46:25;6.50;99.90
3408;DHT22;1717;50.240;8.406;2023-02-01T16:48:54;6.50;99.90
3408;DHT22;1717;50.240;8.406;2023-02-01T16:51:25;6.60;99.90
3408;DHT22;1717;50.240;8.406;2023-02-01T16:53:53;6.70;99.90
3408;DHT22;1717;50.240;8.406;2023-02-01T16:56:22;6.70;99.90
3408;DHT22;1717;50.240;8.406;2023-02-01T17:01:18;6.70;99.90
3408;DHT22;1717;50.240;8.406;2023-02-01T17:03:46;6.70;99.90